Time;durP1;ratioP1;P1;durP2;ratioP2;P2;SDS_P1;SDS_P2;PMS_P1;PMS_P2;Temp;Humidity;BMP_temperature;BMP_pressure;BME280_temperature;BME280_humidity;BME280_pressure;Samples;Min_cycle;Max_cycle;Signal;HPM_P1;HPM_P2
2021/07/18 00:00:25;;;;;;;15.77;4.43;;;;;;;16.85;100.00;98191.66;5006224;28;20043;-82
2021/07/18 00:02:51;;;;;;;29.80;5.35;;;;;;;16.82;100.00;98193.16;5023150;28;20513;-81
2021/07/18 00:05:18;;;;;;;21.33;4.75;;;;;;;16.75;100.00;98195.63;5024193;28;20045;-81
2021/07/18 00:07:45;;;;;;;17.13;4.78;;;;;;;16.74;100.00;98207.72;5026438;28;20042;-81
2021/07/18 00:10:12;;;;;;;25.10;5.10;;;;;;;16.71;100.00;98208.41;5026666;28;20057;-82
2021/07/18 00:12:38;;;;;;;25.80;4.82;;;;;;;16.65;100.00;98209.75;5023548;28;20201;-82
2021/07/18 00:15:08;;;;;;;19.70;5.63;;;;;;;16.60;100.00;98205.31;5005778;28;20045;-82
2021/07/18 00:17:38;;;;;;;19.05;5.35;;;;;;;16.58;100.00;98209.53;5023571;28;20092;-82
2021/07/18 00:20:08;;;;;;;15.60;5.10;;;;;;;16.55;100.00;98205.53;5008370;28;20572;-82
2021/07/18 00:22:34;;;;;;;14.63;5.07;;;;;;;16.54;100.00;98203.94;5013960;28;20046;-82
2021/07/18 00:25:02;;;;;;;23.92;5.38;;;;;;;16.54;100.00;98214.84;4988194;28;20057;-82
2021/07/18 00:27:29;;;;;;;25.25;5.93;;;;;;;16.53;100.00;98212.47;4989744;28;20058;-82
2021/07/18 00:29:56;;;;;;;22.67;5.43;;;;;;;16.48;100.00;98213.47;5007586;28;20042;-82
2021/07/18 00:32:22;;;;;;;20.88;5.50;;;;;;;16.46;100.00;98218.50;5011090;28;20037;-81
2021/07/18 00:34:49;;;;;;;23.20;5.05;;;;;;;16.45;100.00;98208.69;5008473;28;20046;-83
2021/07/18 00:37:16;;;;;;;20.00;5.45;;;;;;;16.48;100.00;98209.94;5008335;28;20042;-82
2021/07/18 00:39:42;;;;;;;19.63;5.32;;;;;;;16.44;100.00;98211.75;5007182;28;20069;-82
2021/07/18 00:42:09;;;;;;;16.77;5.32;;;;;;;16.39;100.00;98190.13;4990993;28;20050;-82
2021/07/18 00:44:35;;;;;;;16.85;5.25;;;;;;;16.37;100.00;98206.03;4989743;28;20074;-81
2021/07/18 00:47:02;;;;;;;20.13;5.57;;;;;;;16.35;100.00;98202.84;5008816;28;20042;-82
2021/07/18 00:49:29;;;;;;;19.50;5.43;;;;;;;16.33;100.00;98207.84;5008028;28;20058;-82
2021/07/18 00:51:55;;;;;;;16.85;5.88;;;;;;;16.35;100.00;98200.13;5007529;28;20057;-83
2021/07/18 00:54:23;;;;;;;21.60;5.68;;;;;;;16.33;100.00;98202.41;4989645;28;20050;-82
2021/07/18 00:56:50;;;;;;;24.13;6.00;;;;;;;16.35;100.00;98205.56;5007801;28;20043;-82
2021/07/18 00:59:18;;;;;;;27.17;5.85;;;;;;;16.34;100.00;98196.56;5006544;28;20412;-83
2021/07/18 01:01:45;;;;;;;24.42;5.65;;;;;;;16.30;100.00;98203.88;4987018;28;20518;-83
2021/07/18 01:04:12;;;;;;;24.00;6.30;;;;;;;16.28;100.00;98208.88;5001857;28;20366;-83
2021/07/18 01:06:39;;;;;;;25.92;5.57;;;;;;;16.28;100.00;98208.06;5006832;28;20126;-81
2021/07/18 01:09:05;;;;;;;25.08;5.65;;;;;;;16.27;100.00;98201.00;5011722;28;20042;-80
2021/07/18 01:11:32;;;;;;;22.30;6.38;;;;;;;16.20;100.00;98187.91;5014786;28;20041;-83
2021/07/18 01:13:59;;;;;;;21.65;6.00;;;;;;;16.21;100.00;98200.41;5013482;28;20070;-82
2021/07/18 01:16:25;;;;;;;22.75;5.75;;;;;;;16.18;100.00;98190.97;5012011;28;20042;-81
2021/07/18 01:18:52;;;;;;;21.92;6.40;;;;;;;16.15;100.00;98199.06;5011805;28;20042;-80
2021/07/18 01:21:23;;;;;;;27.48;6.45;;;;;;;16.11;100.00;98198.91;5012643;28;20070;-83
2021/07/18 01:23:51;;;;;;;20.20;6.03;;;;;;;16.10;100.00;98200.03;5012641;28;20047;-80
2021/07/18 01:26:18;;;;;;;22.05;6.10;;;;;;;16.08;100.00;98196.84;5004802;28;20047;-82
2021/07/18 01:28:46;;;;;;;26.30;5.72;;;;;;;16.09;100.00;98203.91;5002248;28;20096;-82
2021/07/18 01:31:12;;;;;;;35.78;6.53;;;;;;;16.08;100.00;98204.25;5014427;28;20162;-82
2021/07/18 01:33:39;;;;;;;23.13;5.90;;;;;;;16.04;100.00;98211.53;5008454;28;20037;-82
2021/07/18 01:36:06;;;;;;;17.15;5.63;;;;;;;16.08;100.00;98209.69;5001389;28;20042;-82
2021/07/18 01:38:33;;;;;;;20.38;5.50;;;;;;;16.10;100.00;98202.78;4976381;28;20320;-81
2021/07/18 01:40:59;;;;;;;28.77;5.88;;;;;;;16.08;100.00;98196.84;4995095;28;20249;-81
2021/07/18 01:43:26;;;;;;;26.20;6.15;;;;;;;16.11;100.00;98200.84;4993621;28;20108;-80
2021/07/18 01:45:52;;;;;;;23.23;5.22;;;;;;;16.11;100.00;98203.56;4993881;28;20050;-80
2021/07/18 01:48:19;;;;;;;21.90;5.70;;;;;;;16.10;100.00;98199.25;4978210;28;20042;-81
2021/07/18 01:50:46;;;;;;;24.40;5.97;;;;;;;16.09;100.00;98197.66;4994904;28;20050;-82
2021/07/18 01:53:12;;;;;;;19.42;5.60;;;;;;;16.07;100.00;98208.94;4994810;28;20193;-81
2021/07/18 01:55:39;;;;;;;24.77;6.65;;;;;;;16.03;100.00;98205.25;5001687;28;20049;-80
2021/07/18 01:58:06;;;;;;;21.35;6.20;;;;;;;16.05;100.00;98208.44;4999039;28;20160;-82
2021/07/18 02:00:33;;;;;;;22.45;6.05;;;;;;;16.02;100.00;98209.16;4995011;28;20341;-82
2021/07/18 02:03:00;;;;;;;19.67;6.43;;;;;;;15.97;100.00;98198.44;4995262;28;20096;-80
2021/07/18 02:05:27;;;;;;;26.02;6.07;;;;;;;15.93;100.00;98196.69;4995504;28;20391;-80
2021/07/18 02:07:54;;;;;;;20.25;6.20;;;;;;;15.94;100.00;98204.56;4995544;28;20049;-81
2021/07/18 02:10:22;;;;;;;18.65;6.10;;;;;;;15.94;100.00;98201.81;4994999;28;20104;-81
2021/07/18 02:12:49;;;;;;;20.38;6.30;;;;;;;15.94;100.00;98207.28;4994194;28;20130;-80
2021/07/18 02:15:18;;;;;;;16.38;5.75;;;;;;;15.94;100.00;98206.47;4977008;28;20038;-83
2021/07/18 02:17:45;;;;;;;18.48;6.13;;;;;;;15.92;100.00;98212.28;4996609;28;20046;-82
2021/07/18 02:20:19;;;;;;;26.98;6.32;;;;;;;15.91;100.00;98207.94;4994059;28;20046;-79
2021/07/18 02:22:52;;;;;;;18.55;6.35;;;;;;;15.96;100.00;98198.75;4996108;28;20050;-81
2021/07/18 02:25:22;;;;;;;29.10;6.13;;;;;;;16.01;100.00;98207.53;4996364;28;20050;-82
2021/07/18 02:27:49;;;;;;;14.80;5.05;;;;;;;15.94;100.00;98207.28;4997626;28;20040;-81
2021/07/18 02:30:19;;;;;;;19.88;6.03;;;;;;;15.91;100.00;98210.69;4996903;28;20461;-80
2021/07/18 02:32:45;;;;;;;25.80;6.10;;;;;;;15.89;100.00;98214.88;5003970;28;20099;-81
2021/07/18 02:35:15;;;;;;;24.80;6.13;;;;;;;15.84;100.00;98213.16;4998388;28;20046;-81
2021/07/18 02:37:43;;;;;;;22.90;6.20;;;;;;;15.82;100.00;98214.63;4996567;28;20081;-82
2021/07/18 02:40:12;;;;;;;24.83;6.72;;;;;;;15.85;100.00;98214.75;4998249;28;20038;-81
2021/07/18 02:42:39;;;;;;;24.55;6.82;;;;;;;15.80;100.00;98208.69;4980213;28;20104;-81
2021/07/18 02:45:10;;;;;;;26.10;6.88;;;;;;;15.75;100.00;98209.69;4998533;28;20050;-82
2021/07/18 02:47:38;;;;;;;29.88;7.07;;;;;;;15.77;100.00;98217.56;4998880;28;20038;-81
2021/07/18 02:50:07;;;;;;;23.98;6.82;;;;;;;15.73;100.00;98216.63;4997042;28;20517;-81
2021/07/18 02:52:34;;;;;;;21.77;7.00;;;;;;;15.67;100.00;98209.75;4997862;28;20069;-81
2021/07/18 02:55:00;;;;;;;26.73;7.07;;;;;;;15.66;100.00;98206.25;4997659;28;20050;-81
2021/07/18 02:57:27;;;;;;;28.70;7.10;;;;;;;15.64;100.00;98218.63;5001337;28;20108;-82
2021/07/18 02:59:53;;;;;;;28.25;7.35;;;;;;;15.63;100.00;98212.38;5005090;28;20150;-82
2021/07/18 03:02:20;;;;;;;31.40;8.13;;;;;;;15.58;100.00;98210.66;4999273;28;20069;-81
2021/07/18 03:04:46;;;;;;;20.92;7.90;;;;;;;15.52;100.00;98213.91;5005395;23;20050;-82
2021/07/18 03:07:13;;;;;;;35.55;7.68;;;;;;;15.50;100.00;98216.97;4994762;28;20045;-81
2021/07/18 03:13:28;;;;;;;25.25;7.88;;;;;;;15.45;100.00;98206.25;4987301;28;20057;-82
2021/07/18 03:16:05;;;;;;;32.70;8.15;;;;;;;15.40;100.00;98202.88;5000913;28;20041;-82
2021/07/18 03:18:50;;;;;;;28.20;8.35;;;;;;;15.50;100.00;98207.97;5022178;28;20168;-81
2021/07/18 03:25:28;;;;;;;28.55;10.10;;;;;;;15.60;100.00;98223.94;5016280;28;20086;-80
2021/07/18 03:27:58;;;;;;;31.75;9.90;;;;;;;15.71;100.00;98227.09;5002211;28;20382;-81
2021/07/18 03:31:17;;;;;;;;;;;;;;;;;;;;;
2021/07/18 03:34:06;;;;;;;35.95;13.18;;;;;;;15.79;100.00;98218.84;4954381;28;20102;-80
2021/07/18 03:36:36;;;;;;;30.27;12.73;;;;;;;15.83;100.00;98211.56;4942511;28;20526;-79
2021/07/18 03:39:04;;;;;;;34.88;14.98;;;;;;;15.88;100.00;98216.00;4956474;28;20043;-78
2021/07/18 03:42:06;;;;;;;36.55;15.23;;;;;;;15.89;100.00;98214.88;4970885;28;20075;-84
2021/07/18 03:44:36;;;;;;;34.55;15.85;;;;;;;15.99;100.00;98223.47;4955217;28;20057;-79
2021/07/18 03:47:04;;;;;;;35.33;15.82;;;;;;;15.94;100.00;98218.22;4956593;28;20141;-78
2021/07/18 03:50:13;;;;;;;36.20;15.88;;;;;;;15.92;100.00;98206.81;4971189;28;20051;-81
2021/07/18 03:53:10;;;;;;;43.28;16.55;;;;;;;16.03;100.00;98221.66;4936574;28;20455;-78
2021/07/18 03:55:46;;;;;;;34.15;14.90;;;;;;;16.11;100.00;98230.88;4939954;28;20051;-79
2021/07/18 03:58:39;;;;;;;33.65;14.77;;;;;;;16.01;100.00;98215.72;4970564;28;20043;-82
2021/07/18 04:01:20;;;;;;;38.70;15.68;;;;;;;16.02;100.00;98217.34;4975034;28;20069;-81
2021/07/18 04:03:55;;;;;;;31.77;14.73;;;;;;;16.08;100.00;98224.16;4998961;28;20049;-80
2021/07/18 04:07:12;;;;;;;32.90;13.63;;;;;;;16.17;100.00;98229.56;5002298;28;20068;-79
2021/07/18 04:09:50;;;;;;;30.95;13.82;;;;;;;16.09;100.00;98212.13;5015482;28;20041;-80
2021/07/18 04:13:07;;;;;;;38.42;13.23;;;;;;;16.20;100.00;98215.22;5014307;28;20523;-80
2021/07/18 04:16:06;;;;;;;31.48;12.52;;;;;;;16.38;100.00;98226.78;4934434;28;20057;-82
2021/07/18 04:18:39;;;;;;;33.85;13.65;;;;;;;16.35;100.00;98228.25;5031083;28;20567;-82
2021/07/18 04:21:11;;;;;;;23.60;12.82;;;;;;;16.35;100.00;98230.97;4998277;28;20107;-83
2021/07/18 04:23:51;;;;;;;23.15;12.50;;;;;;;16.28;100.00;98232.66;4990469;28;20050;-77
2021/07/18 04:26:44;;;;;;;23.65;12.15;;;;;;;16.32;100.00;98228.91;4998111;28;20049;-80
2021/07/18 04:29:23;;;;;;;28.52;12.13;;;;;;;16.28;100.00;98224.47;4997658;28;20049;-80
2021/07/18 04:32:42;;;;;;;;;;;;;;;;;;;;;
2021/07/18 04:35:55;;;;;;;26.52;11.55;;;;;;;16.35;100.00;98252.03;5015949;28;20057;-81
2021/07/18 04:38:27;;;;;;;19.90;11.07;;;;;;;16.39;100.00;98240.09;5014771;28;20334;-79
2021/07/18 04:41:18;;;;;;;29.73;12.07;;;;;;;16.38;100.00;98240.44;5017030;28;20087;-80
2021/07/18 04:44:37;;;;;;;29.13;10.85;;;;;;;16.35;100.00;98243.84;5010717;28;20097;-80
2021/07/18 04:47:16;;;;;;;23.85;11.27;;;;;;;16.43;100.00;98248.41;5013617;28;20045;-79
2021/07/18 04:50:49;;;;;;;30.27;10.85;;;;;;;16.41;100.00;98239.75;5031699;28;20686;-78
2021/07/18 04:53:22;;;;;;;21.30;10.80;;;;;;;16.40;100.00;98247.16;5028735;28;20057;-80
2021/07/18 04:56:18;;;;;;;16.42;9.93;;;;;;;16.35;100.00;98233.72;5000666;28;20033;-77
2021/07/18 04:58:46;;;;;;;26.75;10.70;;;;;;;16.40;100.00;98236.22;5012909;28;20046;-79
2021/07/18 05:01:13;;;;;;;19.55;9.52;;;;;;;16.40;100.00;98233.50;4997698;28;20107;-77
2021/07/18 05:03:39;;;;;;;21.80;10.60;;;;;;;16.42;100.00;98252.28;5013539;28;20045;-79
2021/07/18 05:06:09;;;;;;;18.52;9.93;;;;;;;16.48;100.00;98245.47;5032244;28;20076;-78
2021/07/18 05:08:35;;;;;;;27.75;10.32;;;;;;;16.56;100.00;98241.88;5032010;28;20049;-77
2021/07/18 05:11:03;;;;;;;20.38;9.93;;;;;;;16.61;100.00;98233.44;5031350;28;20516;-78
2021/07/18 05:13:30;;;;;;;20.73;10.02;;;;;;;16.59;100.00;98233.81;5031815;28;20045;-81
2021/07/18 05:15:57;;;;;;;25.92;10.25;;;;;;;16.51;100.00;98250.25;4997698;28;20092;-80
2021/07/18 05:18:25;;;;;;;15.52;9.70;;;;;;;16.69;100.00;98255.25;4997486;28;20496;-81
2021/07/18 05:20:53;;;;;;;18.23;9.18;;;;;;;16.69;100.00;98255.25;4996046;28;20056;-81
2021/07/18 05:23:30;;;;;;;18.70;9.70;;;;;;;16.59;100.00;98249.41;4995047;28;20053;-81
2021/07/18 05:25:59;;;;;;;23.15;9.18;;;;;;;17.00;100.00;98260.16;5009252;28;20130;-77
2021/07/18 05:28:28;;;;;;;15.85;8.25;;;;;;;17.04;100.00;98241.13;5009648;28;20052;-77
2021/07/18 05:30:55;;;;;;;19.75;8.18;;;;;;;17.12;100.00;98242.94;5001494;28;20145;-76
2021/07/18 05:33:22;;;;;;;20.70;8.35;;;;;;;17.09;100.00;98243.63;5012582;28;20049;-76
2021/07/18 05:35:52;;;;;;;20.83;8.30;;;;;;;16.92;100.00;98239.19;5030022;28;20041;-78
2021/07/18 05:38:21;;;;;;;19.48;8.18;;;;;;;17.01;100.00;98242.59;5029853;28;20045;-77
2021/07/18 05:40:57;;;;;;;20.73;8.43;;;;;;;17.03;100.00;98243.06;5029397;28;20037;-75
2021/07/18 05:43:23;;;;;;;17.85;7.65;;;;;;;17.07;100.00;98245.91;5024099;28;20041;-76
2021/07/18 05:45:50;;;;;;;20.35;7.90;;;;;;;17.10;100.00;98246.03;5010961;28;20182;-75
2021/07/18 05:48:22;;;;;;;23.35;8.45;;;;;;;17.02;100.00;98246.13;5032513;28;20515;-80
2021/07/18 05:50:53;;;;;;;18.52;8.20;;;;;;;17.02;100.00;98246.13;5020770;28;20424;-79
2021/07/18 05:53:20;;;;;;;17.95;7.78;;;;;;;17.05;100.00;98251.72;5016791;28;20049;-78
2021/07/18 05:55:47;;;;;;;19.75;7.18;;;;;;;17.06;100.00;98250.56;5008416;28;20231;-78
2021/07/18 05:58:15;;;;;;;23.40;7.72;;;;;;;16.73;100.00;98263.53;5013989;28;20393;-79
2021/07/18 06:00:44;;;;;;;25.38;7.90;;;;;;;16.71;100.00;98244.75;5000195;28;20053;-79
2021/07/18 06:03:11;;;;;;;17.00;7.35;;;;;;;16.87;100.00;98261.28;4999669;28;20567;-77
2021/07/18 06:05:39;;;;;;;17.70;7.63;;;;;;;16.77;100.00;98254.34;5016577;28;20050;-81
2021/07/18 06:08:06;;;;;;;13.77;7.60;;;;;;;16.87;100.00;98255.03;4996775;28;20057;-79
2021/07/18 06:10:33;;;;;;;21.17;7.82;;;;;;;16.81;100.00;98251.72;4996804;28;20058;-81
2021/07/18 06:13:00;;;;;;;20.00;7.43;;;;;;;16.76;100.00;98257.41;5019145;28;20077;-79
2021/07/18 06:15:29;;;;;;;17.23;7.65;;;;;;;16.97;100.00;98252.63;5032738;28;20479;-80
2021/07/18 06:17:58;;;;;;;17.08;7.53;;;;;;;17.03;100.00;98248.53;5037777;28;20632;-78
2021/07/18 06:20:29;;;;;;;18.73;7.50;;;;;;;17.08;100.00;98256.53;5020260;28;20029;-80
2021/07/18 06:22:55;;;;;;;17.15;7.78;;;;;;;17.12;100.00;98246.47;5045071;28;20049;-78
2021/07/18 06:25:22;;;;;;;13.32;6.60;;;;;;;17.32;100.00;98256.50;5026214;28;20119;-79
2021/07/18 06:27:49;;;;;;;12.85;6.22;;;;;;;17.38;100.00;98241.44;5026959;28;20072;-80
2021/07/18 06:30:16;;;;;;;14.52;6.25;;;;;;;17.65;100.00;98256.38;5024615;28;20042;-79
2021/07/18 06:32:43;;;;;;;16.00;6.00;;;;;;;17.66;100.00;98257.97;5023867;28;20121;-79
2021/07/18 06:35:10;;;;;;;17.42;6.38;;;;;;;17.64;100.00;98256.72;5037037;28;20048;-78
2021/07/18 06:37:37;;;;;;;16.92;6.80;;;;;;;17.66;100.00;98259.91;5017816;28;20049;-79
2021/07/18 06:40:05;;;;;;;17.73;6.35;;;;;;;17.63;100.00;98255.91;5037341;28;20120;-79
2021/07/18 06:42:33;;;;;;;10.68;6.03;;;;;;;17.64;100.00;98263.00;5001034;28;20053;-81
2021/07/18 06:45:00;;;;;;;14.98;6.00;;;;;;;17.78;100.00;98260.66;5015581;28;20041;-78
2021/07/18 06:47:29;;;;;;;16.42;6.20;;;;;;;17.82;100.00;98260.78;5016402;28;20033;-79
2021/07/18 06:49:57;;;;;;;15.93;6.28;;;;;;;17.54;100.00;98263.47;5025612;28;20375;-82
2021/07/18 06:52:27;;;;;;;13.10;5.95;;;;;;;17.41;100.00;98259.94;5017647;28;20057;-80
2021/07/18 06:54:58;;;;;;;19.95;6.47;;;;;;;17.38;100.00;98265.28;5015457;28;20050;-82
2021/07/18 06:57:28;;;;;;;18.83;6.32;;;;;;;17.39;100.00;98261.41;5017766;28;20041;-83
2021/07/18 07:00:51;;;;;;;12.35;6.38;;;;;;;17.58;100.00;98258.88;5018708;28;20052;-81
2021/07/18 07:03:40;;;;;;;;;;;;;;;;;;;;;
2021/07/18 07:06:08;;;;;;;14.52;6.95;;;;;;;17.33;100.00;98255.38;5016052;28;20149;-83
2021/07/18 07:08:34;;;;;;;12.85;6.15;;;;;;;17.64;100.00;98264.94;5016773;28;20103;-79
2021/07/18 07:11:01;;;;;;;10.73;5.60;;;;;;;17.98;100.00;98269.88;5016258;28;20048;-80
2021/07/18 07:13:29;;;;;;;13.48;5.63;;;;;;;18.22;100.00;98267.03;5033536;28;20083;-79
2021/07/18 07:15:57;;;;;;;16.65;5.90;;;;;;;18.08;100.00;98268.56;5032893;28;20442;-80
2021/07/18 07:18:26;;;;;;;15.93;6.00;;;;;;;17.80;100.00;98274.03;5014888;28;20104;-78
2021/07/18 07:20:53;;;;;;;14.57;5.53;;;;;;;17.76;100.00;98264.91;5037899;28;20080;-80
2021/07/18 07:23:25;;;;;;;14.48;5.50;;;;;;;17.68;100.00;98274.84;5034872;28;20054;-81
2021/07/18 07:25:52;;;;;;;14.10;5.85;;;;;;;18.02;100.00;98279.78;5032344;28;20046;-79
2021/07/18 07:28:21;;;;;;;12.35;5.65;;;;;;;18.23;100.00;98270.56;5031808;28;20516;-77
2021/07/18 07:30:52;;;;;;;12.23;5.47;;;;;;;18.29;100.00;98271.94;5026715;28;20030;-80
2021/07/18 07:33:23;;;;;;;13.43;5.70;;;;;;;18.17;100.00;98261.03;5005779;28;20503;-81
2021/07/18 07:35:51;;;;;;;17.52;5.10;;;;;;;18.43;100.00;98259.38;5003400;28;20045;-78
2021/07/18 07:38:18;;;;;;;11.82;4.57;;;;;;;18.72;100.00;98252.75;5022833;28;20041;-78
2021/07/18 07:40:45;;;;;;;11.60;4.80;;;;;;;19.06;100.00;98252.06;5007710;28;20045;-79
2021/07/18 07:43:12;;;;;;;10.95;4.35;;;;;;;19.56;100.00;98259.50;5024415;28;20050;-79
2021/07/18 07:45:39;;;;;;;10.13;4.50;;;;;;;19.66;100.00;98247.19;5006548;28;20053;-81
2021/07/18 07:48:06;;;;;;;13.55;4.82;;;;;;;19.90;100.00;98255.97;5022219;28;20061;-79
2021/07/18 07:50:33;;;;;;;10.38;4.32;;;;;;;19.33;100.00;98253.06;5018989;28;20055;-82
2021/07/18 07:53:02;;;;;;;13.00;4.60;;;;;;;18.71;100.00;98258.59;5006149;28;20081;-83
2021/07/18 07:55:44;;;;;;;12.00;4.15;;;;;;;18.81;100.00;98258.88;5007264;28;20102;-81
2021/07/18 07:58:11;;;;;;;18.88;4.47;;;;;;;18.60;100.00;98258.31;5002883;28;20037;-81
2021/07/18 08:00:40;;;;;;;11.18;4.20;;;;;;;18.55;100.00;98256.63;5022433;28;20124;-82
2021/07/18 08:03:09;;;;;;;18.23;4.78;;;;;;;18.59;100.00;98264.94;4997134;28;20045;-79
2021/07/18 08:05:36;;;;;;;8.32;4.05;;;;;;;18.67;100.00;98263.97;5014161;28;20100;-80
2021/07/18 08:08:03;;;;;;;11.48;4.40;;;;;;;18.46;100.00;98257.88;5013533;28;20049;-81
2021/07/18 08:10:31;;;;;;;10.35;4.65;;;;;;;18.33;100.00;98265.38;4980231;28;20081;-80
2021/07/18 08:12:57;;;;;;;11.18;5.32;;;;;;;18.20;100.00;98254.81;5014466;28;20126;-80
2021/07/18 08:15:24;;;;;;;15.18;5.20;;;;;;;18.48;100.00;98272.06;4996071;28;20046;-84
2021/07/18 08:17:52;;;;;;;9.98;4.95;;;;;;;18.85;100.00;98261.69;5021275;28;20113;-80
2021/07/18 08:20:25;;;;;;;12.95;4.57;;;;;;;19.13;100.00;98254.97;5003926;28;20050;-85
2021/07/18 08:22:54;;;;;;;9.63;4.05;;;;;;;19.45;100.00;98263.19;5042701;28;20052;-81
2021/07/18 08:25:41;;;;;;;11.43;3.67;;;;;;;19.22;100.00;98252.03;5017772;28;20068;-83
2021/07/18 08:28:08;;;;;;;10.50;3.75;;;;;;;19.25;100.00;98254.06;4990618;28;20605;-82
2021/07/18 08:30:35;;;;;;;10.32;3.85;;;;;;;19.73;100.00;98258.34;5013331;28;20350;-81
2021/07/18 08:33:11;;;;;;;11.52;3.80;;;;;;;20.10;100.00;98250.47;5014952;28;20056;-84
2021/07/18 08:35:41;;;;;;;12.93;4.18;;;;;;;20.18;100.00;98257.72;5034824;28;20540;-80
2021/07/18 08:38:10;;;;;;;10.68;3.80;;;;;;;20.55;100.00;98253.34;4997926;28;20545;-84
2021/07/18 08:40:37;;;;;;;9.52;3.65;;;;;;;20.88;100.00;98248.03;5025140;28;20137;-80
2021/07/18 08:43:05;;;;;;;5.13;2.83;;;;;;;21.02;100.00;98253.00;5014632;28;20056;-79
2021/07/18 08:45:32;;;;;;;14.35;3.92;;;;;;;20.50;100.00;98251.69;5032988;28;20408;-80
2021/07/18 08:48:15;;;;;;;10.05;3.80;;;;;;;20.10;100.00;98250.47;5015708;28;20515;-83
2021/07/18 08:50:42;;;;;;;8.82;3.60;;;;;;;20.24;100.00;98250.78;5016076;28;20042;-76
2021/07/18 08:53:09;;;;;;;11.70;3.70;;;;;;;20.40;100.00;98255.03;5031282;28;20045;-78
2021/07/18 08:55:38;;;;;;;8.25;3.67;;;;;;;20.74;100.00;98253.31;5035894;28;20034;-80
2021/07/18 09:02:15;;;;;;;9.52;3.85;;;;;;;20.98;100.00;98252.94;4998128;28;20065;-82
2021/07/18 09:05:27;;;;;;;9.55;3.60;;;;;;;20.57;100.00;98251.03;4985791;23;20046;-79
2021/07/18 09:07:56;;;;;;;6.55;3.53;;;;;;;20.89;100.00;98263.41;5036078;28;20131;-85
2021/07/18 09:10:28;;;;;;;9.23;3.88;;;;;;;20.53;100.00;98272.19;5039183;28;20041;-80
2021/07/18 09:13:04;;;;;;;11.65;3.92;;;;;;;20.30;100.00;98269.38;5058147;28;20049;-83
2021/07/18 09:15:49;;;;;;;12.05;3.85;;;;;;;20.66;100.00;98267.31;5011016;28;20539;-83
2021/07/18 09:18:26;;;;;;;10.25;3.70;;;;;;;20.75;100.00;98262.38;5035371;28;20105;-84
2021/07/18 09:20:56;;;;;;;11.68;4.00;;;;;;;20.67;100.00;98258.69;5019294;28;20437;-82
2021/07/18 09:23:30;;;;;;;9.85;3.97;;;;;;;20.65;100.00;98261.00;5019726;28;20389;-83
2021/07/18 09:26:20;;;;;;;14.73;4.22;;;;;;;20.69;100.00;98256.38;5017440;28;20049;-82
2021/07/18 09:28:47;;;;;;;7.75;3.92;;;;;;;21.04;100.00;98261.69;5037644;28;20107;-84
2021/07/18 09:31:34;;;;;;;10.23;3.92;;;;;;;21.56;100.00;98253.50;5008217;28;20045;-82
2021/07/18 09:34:13;;;;;;;12.10;3.97;;;;;;;21.62;100.00;98256.72;5037938;28;20133;-80
2021/07/18 09:36:40;;;;;;;13.23;4.18;;;;;;;21.51;100.00;98259.31;5039085;28;20080;-83
2021/07/18 09:39:09;;;;;;;7.55;4.20;;;;;;;21.48;100.00;98262.81;5022847;28;20037;-85
2021/07/18 09:41:43;;;;;;;7.63;4.38;;;;;;;21.35;100.00;98264.19;5022933;28;20517;-79
2021/07/18 09:44:10;;;;;;;11.35;5.00;;;;;;;21.25;100.00;98264.03;5034509;28;20049;-80
2021/07/18 09:46:37;;;;;;;11.18;4.90;;;;;;;21.50;100.00;98257.72;5036280;28;20076;-83
2021/07/18 09:49:05;;;;;;;20.92;5.82;;;;;;;20.97;100.00;98275.34;5020252;28;20060;-82
2021/07/18 09:51:32;;;;;;;11.45;5.90;;;;;;;21.26;100.00;98265.63;5023421;28;20088;-85
2021/07/18 09:54:11;;;;;;;12.32;5.85;;;;;;;21.59;100.00;98249.19;5023309;28;20072;-87
2021/07/18 09:56:39;;;;;;;17.77;7.50;;;;;;;21.11;100.00;98251.59;5042338;28;20070;-79
2021/07/18 09:59:06;;;;;;;15.00;8.80;;;;;;;21.35;100.00;98241.34;5063707;28;20029;-79
2021/07/18 10:01:33;;;;;;;13.88;8.55;;;;;;;22.60;100.00;98243.41;5041976;28;20120;-79
2021/07/18 10:04:02;;;;;;;11.13;7.03;;;;;;;22.68;100.00;98250.59;5041247;28;20033;-81
2021/07/18 10:06:34;;;;;;;17.02;7.18;;;;;;;24.03;100.00;98222.75;5062427;28;20053;-81
2021/07/18 10:09:09;;;;;;;12.52;7.88;;;;;;;24.65;100.00;98233.66;5045986;28;20030;-82
2021/07/18 10:11:36;;;;;;;12.13;7.75;;;;;;;24.39;100.00;98232.00;5056493;28;20103;-81
2021/07/18 10:14:05;;;;;;;11.18;7.65;;;;;;;25.30;100.00;98236.88;5055601;28;20067;-82
2021/07/18 10:16:32;;;;;;;11.40;6.25;;;;;;;24.63;100.00;98225.75;5048917;28;20080;-83
2021/07/18 10:18:59;;;;;;;13.18;6.07;;;;;;;25.66;100.00;98229.31;5043586;28;20064;-81
2021/07/18 10:21:28;;;;;;;13.98;5.53;;;;;;;26.04;100.00;98224.88;5030221;28;20034;-83
2021/07/18 10:23:56;;;;;;;7.28;5.70;;;;;;;26.90;100.00;98224.03;5041254;28;20091;-80
2021/07/18 10:26:26;;;;;;;15.50;5.53;;;;;;;26.98;100.00;98217.22;5038185;28;20056;-80
2021/07/18 10:28:55;;;;;;;11.25;5.00;;;;;;;25.25;100.00;98222.63;5037721;28;20040;-80
2021/07/18 10:31:28;;;;;;;10.75;6.07;;;;;;;25.78;100.00;98217.03;5032767;28;20045;-80
2021/07/18 10:33:56;;;;;;;11.38;4.82;;;;;;;27.23;100.00;98211.44;5031997;28;20140;-82
2021/07/18 10:36:24;;;;;;;11.65;5.68;;;;;;;26.50;100.00;98205.22;5037695;28;20041;-79
2021/07/18 10:38:52;;;;;;;10.75;6.63;;;;;;;25.02;100.00;98214.72;5038183;28;20057;-81
2021/07/18 10:41:44;;;;;;;11.85;7.00;;;;;;;25.75;100.00;98213.06;5034302;28;20106;-81
2021/07/18 10:44:12;;;;;;;10.60;6.20;;;;;;;24.83;100.00;98212.34;5034694;28;20053;-82
2021/07/18 10:46:38;;;;;;;10.63;5.80;;;;;;;24.66;100.00;98216.66;5017270;28;20119;-82
2021/07/18 10:49:05;;;;;;;12.93;5.60;;;;;;;25.53;100.00;98199.63;5021546;28;20064;-81
2021/07/18 10:51:36;;;;;;;11.25;3.97;;;;;;;27.33;100.00;98209.78;5048442;28;20052;-81
2021/07/18 10:54:12;;;;;;;9.10;4.30;;;;;;;27.47;100.00;98213.22;5037212;28;20048;-82
2021/07/18 10:56:50;;;;;;;11.15;5.50;;;;;;;27.05;100.00;98217.16;4999840;28;20068;-83
2021/07/18 10:59:36;;;;;;;8.48;5.63;;;;;;;27.74;100.00;98205.00;5041145;28;20041;-82
2021/07/18 11:02:11;;;;;;;10.68;5.53;;;;;;;26.57;100.00;98205.19;5048763;28;20123;-83
2021/07/18 11:04:50;;;;;;;12.55;5.45;;;;;;;27.11;100.00;98204.41;5038620;28;20068;-84
2021/07/18 11:07:19;;;;;;;6.50;4.65;;;;;;;27.58;100.00;98210.34;5057403;28;20091;-80
2021/07/18 11:09:56;;;;;;;9.52;4.47;;;;;;;27.96;100.00;98205.53;5028435;28;20103;-85
2021/07/18 11:12:30;;;;;;;8.82;3.97;;;;;;;29.26;100.00;98192.56;5046762;28;20041;-82
2021/07/18 11:15:15;;;;;;;7.93;3.95;;;;;;;29.42;100.00;98186.31;5040244;28;20057;-79
2021/07/18 11:18:00;;;;;;;8.63;3.88;;;;;;;29.82;100.00;98178.75;5043149;28;20115;-81
2021/07/18 11:20:53;;;;;;;10.80;3.92;;;;;;;29.77;100.00;98198.78;5044545;28;20036;-84
2021/07/18 11:23:34;;;;;;;9.88;4.15;;;;;;;31.13;88.60;98187.81;5045435;28;20136;-85
2021/07/18 11:26:04;;;;;;;9.10;3.70;;;;;;;30.75;92.82;98179.94;5028495;28;20045;-80
2021/07/18 11:28:35;;;;;;;7.13;3.70;;;;;;;29.58;100.00;98178.78;5052009;28;20118;-80
2021/07/18 11:31:11;;;;;;;11.02;3.30;;;;;;;31.42;95.86;98181.06;5052706;28;20094;-84
2021/07/18 11:33:44;;;;;;;8.15;3.50;;;;;;;31.75;71.22;98181.78;5054030;28;20049;-81
2021/07/18 11:36:15;;;;;;;10.68;3.40;;;;;;;31.91;73.45;98187.34;5056357;28;20057;-83
2021/07/18 11:38:42;;;;;;;7.95;3.40;;;;;;;30.07;100.00;98181.81;5039118;28;20075;-84
2021/07/18 11:41:20;;;;;;;8.40;3.40;;;;;;;30.18;99.02;98183.19;5062993;28;20103;-84
2021/07/18 11:43:52;;;;;;;9.98;3.47;;;;;;;27.76;100.00;98180.34;5060257;28;20059;-84
2021/07/18 11:46:21;;;;;;;6.53;3.30;;;;;;;27.64;100.00;98175.31;5055795;28;20056;-84
2021/07/18 11:48:53;;;;;;;6.63;3.05;;;;;;;29.73;100.00;98167.38;5055022;28;20053;-86
2021/07/18 11:51:21;;;;;;;9.38;3.20;;;;;;;30.87;98.78;98155.31;5054460;28;20064;-84
2021/07/18 11:53:53;;;;;;;5.30;2.60;;;;;;;30.47;97.41;98157.44;5038329;28;20508;-83
2021/07/18 11:56:25;;;;;;;8.25;2.58;;;;;;;30.63;89.55;98163.06;5055702;28;20037;-84